sensor_id;sensor_type;location;lat;lon;timestamp;temperature;humidity
52127;DHT22;38120;53.176;6.614;2023-10-08T00:00:48;13.30;99.90
52127;DHT22;38120;53.176;6.614;2023-10-08T00:03:21;13.30;99.90
52127;DHT22;38120;53.176;6.614;2023-10-08T00:05:48;13.30;99.90
52127;DHT22;38120;53.176;6.614;2023-10-08T00:08:15;13.20;99.90
52127;DHT22;38120;53.176;6.614;2023-10-08T00:10:42;13.10;99.90
52127;DHT22;38120;53.176;6.614;2023-10-08T00:13:10;13.20;99.90
52127;DHT22;38120;53.176;6.614;2023-10-08T00:15:39;13.20;99.90
52127;DHT22;38120;53.176;6.614;2023-10-08T00:18:21;13.20;99.90
52127;DHT22;38120;53.176;6.614;2023-10-08T00:20:48;13.10;99.90
52127;DHT22;38120;53.176;6.614;2023-10-08T00:23:22;13.10;99.90
52127;DHT22;38120;53.176;6.614;2023-10-08T00:25:51;13.20;99.90
52127;DHT22;38120;53.176;6.614;2023-10-08T00:28:17;13.10;99.90
52127;DHT22;38120;53.176;6.614;2023-10-08T00:30:43;13.10;99.90
52127;DHT22;38120;53.176;6.614;2023-10-08T00:33:10;13.10;99.90
52127;DHT22;38120;53.176;6.614;2023-10-08T00:35:39;13.10;99.90
52127;DHT22;38120;53.176;6.614;2023-10-08T00:38:10;13.10;99.90
52127;DHT22;38120;53.176;6.614;2023-10-08T00:40:46;13.10;99.90
52127;DHT22;38120;53.176;6.614;2023-10-08T00:43:32;13.20;99.90
52127;DHT22;38120;53.176;6.614;2023-10-08T00:45:59;13.10;99.90
52127;DHT22;38120;53.176;6.614;2023-10-08T00:48:29;13.10;99.90
52127;DHT22;38120;53.176;6.614;2023-10-08T00:51:02;13.10;99.90
52127;DHT22;38120;53.176;6.614;2023-10-08T00:56:17;13.10;99.90
52127;DHT22;38120;53.176;6.614;2023-10-08T00:58:45;13.10;99.90
52127;DHT22;38120;53.176;6.614;2023-10-08T01:01:19;13.20;99.90
52127;DHT22;38120;53.176;6.614;2023-10-08T01:03:46;13.10;99.90
52127;DHT22;38120;53.176;6.614;2023-10-08T01:06:16;13.20;99.90
52127;DHT22;38120;53.176;6.614;2023-10-08T01:08:46;13.10;99.90
52127;DHT22;38120;53.176;6.614;2023-10-08T01:11:22;13.10;99.90
52127;DHT22;38120;53.176;6.614;2023-10-08T01:13:56;13.10;99.90
52127;DHT22;38120;53.176;6.614;2023-10-08T01:16:24;13.10;99.90
52127;DHT22;38120;53.176;6.614;2023-10-08T01:18:52;13.10;99.90
52127;DHT22;38120;53.176;6.614;2023-10-08T01:21:20;13.10;99.90
52127;DHT22;38120;53.176;6.614;2023-10-08T01:24:06;13.10;99.90
52127;DHT22;38120;53.176;6.614;2023-10-08T01:26:35;13.10;99.90
52127;DHT22;38120;53.176;6.614;2023-10-08T01:29:08;13.10;99.90
52127;DHT22;38120;53.176;6.614;2023-10-08T01:31:35;13.10;99.90
52127;DHT22;38120;53.176;6.614;2023-10-08T01:34:02;13.20;99.90
52127;DHT22;38120;53.176;6.614;2023-10-08T01:36:30;13.10;99.90
52127;DHT22;38120;53.176;6.614;2023-10-08T01:38:57;13.00;99.90
52127;DHT22;38120;53.176;6.614;2023-10-08T01:41:23;13.10;99.90
52127;DHT22;38120;53.176;6.614;2023-10-08T01:43:56;13.00;99.90
52127;DHT22;38120;53.176;6.614;2023-10-08T01:46:25;13.00;99.90
52127;DHT22;38120;53.176;6.614;2023-10-08T01:48:51;13.10;99.90
52127;DHT22;38120;53.176;6.614;2023-10-08T01:51:25;13.20;99.90
52127;DHT22;38120;53.176;6.614;2023-10-08T01:53:54;13.10;99.90
52127;DHT22;38120;53.176;6.614;2023-10-08T01:56:23;13.10;99.90
52127;DHT22;38120;53.176;6.614;2023-10-08T01:58:50;13.10;99.90
52127;DHT22;38120;53.176;6.614;2023-10-08T02:01:20;13.10;99.90
52127;DHT22;38120;53.176;6.614;2023-10-08T02:03:45;13.10;99.90
52127;DHT22;38120;53.176;6.614;2023-10-08T02:06:11;13.10;99.90
52127;DHT22;38120;53.176;6.614;2023-10-08T02:08:38;13.20;99.90
52127;DHT22;38120;53.176;6.614;2023-10-08T02:11:04;13.10;99.90
52127;DHT22;38120;53.176;6.614;2023-10-08T02:13:29;13.10;99.90
52127;DHT22;38120;53.176;6.614;2023-10-08T02:15:56;13.10;99.90
52127;DHT22;38120;53.176;6.614;2023-10-08T02:18:21;13.10;99.90
52127;DHT22;38120;53.176;6.614;2023-10-08T02:20:51;13.10;99.90
52127;DHT22;38120;53.176;6.614;2023-10-08T02:23:17;13.10;99.90
52127;DHT22;38120;53.176;6.614;2023-10-08T02:25:43;13.10;99.90
52127;DHT22;38120;53.176;6.614;2023-10-08T02:28:10;13.10;99.90
52127;DHT22;38120;53.176;6.614;2023-10-08T02:30:41;13.10;99.90
52127;DHT22;38120;53.176;6.614;2023-10-08T02:33:08;13.10;99.90
52127;DHT22;38120;53.176;6.614;2023-10-08T02:35:45;13.10;99.90
52127;DHT22;38120;53.176;6.614;2023-10-08T02:38:12;13.10;99.90
52127;DHT22;38120;53.176;6.614;2023-10-08T02:40:46;13.10;99.90
52127;DHT22;38120;53.176;6.614;2023-10-08T02:43:13;13.10;99.90
52127;DHT22;38120;53.176;6.614;2023-10-08T02:45:44;13.10;99.90
52127;DHT22;38120;53.176;6.614;2023-10-08T02:48:13;13.00;99.90
52127;DHT22;38120;53.176;6.614;2023-10-08T02:50:39;13.00;99.90
52127;DHT22;38120;53.176;6.614;2023-10-08T02:53:06;13.10;99.90
52127;DHT22;38120;53.176;6.614;2023-10-08T02:55:40;13.00;99.90
52127;DHT22;38120;53.176;6.614;2023-10-08T02:58:13;13.10;99.90
52127;DHT22;38120;53.176;6.614;2023-10-08T03:00:45;13.10;99.90
52127;DHT22;38120;53.176;6.614;2023-10-08T03:03:18;13.10;99.90
52127;DHT22;38120;53.176;6.614;2023-10-08T03:05:47;13.10;99.90
52127;DHT22;38120;53.176;6.614;2023-10-08T03:08:14;13.10;99.90
52127;DHT22;38120;53.176;6.614;2023-10-08T03:10:47;13.00;99.90
52127;DHT22;38120;53.176;6.614;2023-10-08T03:13:16;13.00;99.90
52127;DHT22;38120;53.176;6.614;2023-10-08T03:15:43;13.10;99.90
52127;DHT22;38120;53.176;6.614;2023-10-08T03:18:33;13.00;99.90
52127;DHT22;38120;53.176;6.614;2023-10-08T03:21:06;13.00;99.90
52127;DHT22;38120;53.176;6.614;2023-10-08T03:24:07;13.00;99.90
52127;DHT22;38120;53.176;6.614;2023-10-08T03:26:57;13.00;99.90
52127;DHT22;38120;53.176;6.614;2023-10-08T03:29:35;13.00;99.90
52127;DHT22;38120;53.176;6.614;2023-10-08T03:32:14;13.00;99.90
52127;DHT22;38120;53.176;6.614;2023-10-08T03:34:47;13.00;99.90
52127;DHT22;38120;53.176;6.614;2023-10-08T03:37:18;13.00;99.90
52127;DHT22;38120;53.176;6.614;2023-10-08T03:39:55;12.90;99.90
52127;DHT22;38120;53.176;6.614;2023-10-08T03:42:33;12.90;99.90
52127;DHT22;38120;53.176;6.614;2023-10-08T03:45:06;12.90;99.90
52127;DHT22;38120;53.176;6.614;2023-10-08T03:47:39;12.90;99.90
52127;DHT22;38120;53.176;6.614;2023-10-08T03:50:11;12.90;99.90
52127;DHT22;38120;53.176;6.614;2023-10-08T03:52:41;12.90;99.90
52127;DHT22;38120;53.176;6.614;2023-10-08T03:55:09;12.90;99.90
52127;DHT22;38120;53.176;6.614;2023-10-08T03:57:44;12.90;99.90
52127;DHT22;38120;53.176;6.614;2023-10-08T04:00:13;12.90;99.90
52127;DHT22;38120;53.176;6.614;2023-10-08T04:02:54;12.90;99.90
52127;DHT22;38120;53.176;6.614;2023-10-08T04:05:24;12.90;99.90
52127;DHT22;38120;53.176;6.614;2023-10-08T04:07:57;12.90;99.90
52127;DHT22;38120;53.176;6.614;2023-10-08T04:10:23;12.90;99.90
52127;DHT22;38120;53.176;6.614;2023-10-08T04:13:04;12.90;99.90
52127;DHT22;38120;53.176;6.614;2023-10-08T04:15:37;12.90;99.90
52127;DHT22;38120;53.176;6.614;2023-10-08T04:18:10;13.00;99.90
52127;DHT22;38120;53.176;6.614;2023-10-08T04:20:37;13.00;99.90
52127;DHT22;38120;53.176;6.614;2023-10-08T04:23:24;12.90;99.90
52127;DHT22;38120;53.176;6.614;2023-10-08T04:25:50;13.00;99.90
52127;DHT22;38120;53.176;6.614;2023-10-08T04:28:20;13.00;99.90
52127;DHT22;38120;53.176;6.614;2023-10-08T04:30:47;13.00;99.90
52127;DHT22;38120;53.176;6.614;2023-10-08T04:33:13;13.00;99.90
52127;DHT22;38120;53.176;6.614;2023-10-08T04:35:44;12.90;99.90
52127;DHT22;38120;53.176;6.614;2023-10-08T04:38:17;13.00;99.90
52127;DHT22;38120;53.176;6.614;2023-10-08T04:40:44;12.90;99.90
52127;DHT22;38120;53.176;6.614;2023-10-08T04:43:24;12.90;99.90
52127;DHT22;38120;53.176;6.614;2023-10-08T04:46:02;12.90;99.90
52127;DHT22;38120;53.176;6.614;2023-10-08T04:48:31;12.90;99.90
52127;DHT22;38120;53.176;6.614;2023-10-08T04:51:02;12.90;99.90
52127;DHT22;38120;53.176;6.614;2023-10-08T04:53:31;12.90;99.90
52127;DHT22;38120;53.176;6.614;2023-10-08T04:56:03;12.90;99.90
52127;DHT22;38120;53.176;6.614;2023-10-08T04:58:42;12.90;99.90
52127;DHT22;38120;53.176;6.614;2023-10-08T05:01:16;12.90;99.90
52127;DHT22;38120;53.176;6.614;2023-10-08T05:04:04;12.90;99.90
52127;DHT22;38120;53.176;6.614;2023-10-08T05:06:32;13.00;99.90
52127;DHT22;38120;53.176;6.614;2023-10-08T05:09:21;12.90;99.90
52127;DHT22;38120;53.176;6.614;2023-10-08T05:11:51;12.90;99.90
52127;DHT22;38120;53.176;6.614;2023-10-08T05:14:22;12.90;99.90
52127;DHT22;38120;53.176;6.614;2023-10-08T05:16:58;12.90;99.90
52127;DHT22;38120;53.176;6.614;2023-10-08T05:19:39;12.90;99.90
52127;DHT22;38120;53.176;6.614;2023-10-08T05:22:05;12.90;99.90
52127;DHT22;38120;53.176;6.614;2023-10-08T05:24:50;12.90;99.90
52127;DHT22;38120;53.176;6.614;2023-10-08T05:27:36;12.90;99.90
52127;DHT22;38120;53.176;6.614;2023-10-08T05:30:11;12.80;99.90
52127;DHT22;38120;53.176;6.614;2023-10-08T05:32:42;12.90;99.90
52127;DHT22;38120;53.176;6.614;2023-10-08T05:35:26;12.80;99.90
52127;DHT22;38120;53.176;6.614;2023-10-08T05:38:12;12.80;99.90
52127;DHT22;38120;53.176;6.614;2023-10-08T05:40:57;12.80;99.90
52127;DHT22;38120;53.176;6.614;2023-10-08T05:43:35;12.80;99.90
52127;DHT22;38120;53.176;6.614;2023-10-08T05:46:07;12.80;99.90
52127;DHT22;38120;53.176;6.614;2023-10-08T05:48:53;12.70;99.90
52127;DHT22;38120;53.176;6.614;2023-10-08T05:51:36;12.70;99.90
52127;DHT22;38120;53.176;6.614;2023-10-08T05:54:20;12.70;99.90
52127;DHT22;38120;53.176;6.614;2023-10-08T05:56:59;12.70;99.90
52127;DHT22;38120;53.176;6.614;2023-10-08T05:59:38;12.60;99.90
52127;DHT22;38120;53.176;6.614;2023-10-08T06:04:57;12.60;99.90
52127;DHT22;38120;53.176;6.614;2023-10-08T06:07:46;12.60;99.90
52127;DHT22;38120;53.176;6.614;2023-10-08T06:10:26;12.60;99.90
52127;DHT22;38120;53.176;6.614;2023-10-08T06:13:14;12.50;99.90
52127;DHT22;38120;53.176;6.614;2023-10-08T06:15:56;12.60;99.90
52127;DHT22;38120;53.176;6.614;2023-10-08T06:18:30;12.60;99.90
52127;DHT22;38120;53.176;6.614;2023-10-08T06:21:07;12.60;99.90
52127;DHT22;38120;53.176;6.614;2023-10-08T06:23:41;12.60;99.90
52127;DHT22;38120;53.176;6.614;2023-10-08T06:26:08;12.50;99.90
52127;DHT22;38120;53.176;6.614;2023-10-08T06:28:38;12.50;99.90
52127;DHT22;38120;53.176;6.614;2023-10-08T06:31:05;12.50;99.90
52127;DHT22;38120;53.176;6.614;2023-10-08T06:33:32;12.50;99.90
52127;DHT22;38120;53.176;6.614;2023-10-08T06:36:02;12.50;99.90
52127;DHT22;38120;53.176;6.614;2023-10-08T06:38:34;12.60;99.90
52127;DHT22;38120;53.176;6.614;2023-10-08T06:41:02;12.60;99.90
52127;DHT22;38120;53.176;6.614;2023-10-08T06:43:50;12.70;99.90
52127;DHT22;38120;53.176;6.614;2023-10-08T06:46:17;12.70;99.90
52127;DHT22;38120;53.176;6.614;2023-10-08T06:48:46;12.80;99.90
52127;DHT22;38120;53.176;6.614;2023-10-08T06:51:15;12.80;99.90
52127;DHT22;38120;53.176;6.614;2023-10-08T06:53:45;12.80;99.90
52127;DHT22;38120;53.176;6.614;2023-10-08T06:56:15;12.80;99.90
52127;DHT22;38120;53.176;6.614;2023-10-08T06:58:42;12.90;99.90
52127;DHT22;38120;53.176;6.614;2023-10-08T07:01:16;12.90;99.90
52127;DHT22;38120;53.176;6.614;2023-10-08T07:03:47;12.90;99.90
52127;DHT22;38120;53.176;6.614;2023-10-08T07:06:17;12.90;99.90
52127;DHT22;38120;53.176;6.614;2023-10-08T07:08:52;13.00;99.90
52127;DHT22;38120;53.176;6.614;2023-10-08T07:11:21;13.00;99.90
52127;DHT22;38120;53.176;6.614;2023-10-08T07:13:48;13.00;99.90
52127;DHT22;38120;53.176;6.614;2023-10-08T07:16:13;13.10;99.90
52127;DHT22;38120;53.176;6.614;2023-10-08T07:18:43;13.10;99.90
52127;DHT22;38120;53.176;6.614;2023-10-08T07:21:21;13.20;99.90
52127;DHT22;38120;53.176;6.614;2023-10-08T07:23:57;13.20;99.90
52127;DHT22;38120;53.176;6.614;2023-10-08T07:26:29;13.20;99.90
52127;DHT22;38120;53.176;6.614;2023-10-08T07:29:06;13.30;99.90
52127;DHT22;38120;53.176;6.614;2023-10-08T07:31:36;13.30;99.90
52127;DHT22;38120;53.176;6.614;2023-10-08T07:34:03;13.20;99.90
52127;DHT22;38120;53.176;6.614;2023-10-08T07:36:42;13.30;99.90
52127;DHT22;38120;53.176;6.614;2023-10-08T07:39:13;13.20;99.90
52127;DHT22;38120;53.176;6.614;2023-10-08T07:42:05;13.20;99.90
52127;DHT22;38120;53.176;6.614;2023-10-08T07:44:32;13.20;99.90
52127;DHT22;38120;53.176;6.614;2023-10-08T07:47:01;13.20;99.90
52127;DHT22;38120;53.176;6.614;2023-10-08T07:49:31;13.20;99.90
52127;DHT22;38120;53.176;6.614;2023-10-08T07:51:57;13.20;99.90
52127;DHT22;38120;53.176;6.614;2023-10-08T07:54:25;13.30;99.90
52127;DHT22;38120;53.176;6.614;2023-10-08T07:56:55;13.30;99.90
52127;DHT22;38120;53.176;6.614;2023-10-08T07:59:27;13.30;99.90
52127;DHT22;38120;53.176;6.614;2023-10-08T08:01:53;13.30;99.90
52127;DHT22;38120;53.176;6.614;2023-10-08T08:04:20;13.30;99.90
52127;DHT22;38120;53.176;6.614;2023-10-08T08:06:49;13.40;99.90
52127;DHT22;38120;53.176;6.614;2023-10-08T08:09:17;13.50;99.90
52127;DHT22;38120;53.176;6.614;2023-10-08T08:11:46;13.50;99.90
52127;DHT22;38120;53.176;6.614;2023-10-08T08:14:16;13.60;99.90
52127;DHT22;38120;53.176;6.614;2023-10-08T08:16:45;13.60;99.90
52127;DHT22;38120;53.176;6.614;2023-10-08T08:19:15;13.70;99.90
52127;DHT22;38120;53.176;6.614;2023-10-08T08:21:45;13.80;99.90
52127;DHT22;38120;53.176;6.614;2023-10-08T08:24:14;13.80;99.90
52127;DHT22;38120;53.176;6.614;2023-10-08T08:26:55;13.90;99.90
52127;DHT22;38120;53.176;6.614;2023-10-08T08:29:34;13.90;99.90
52127;DHT22;38120;53.176;6.614;2023-10-08T08:32:10;13.90;99.90
52127;DHT22;38120;53.176;6.614;2023-10-08T08:34:44;14.00;99.90
52127;DHT22;38120;53.176;6.614;2023-10-08T08:37:13;13.90;99.90
52127;DHT22;38120;53.176;6.614;2023-10-08T08:39:39;13.90;99.90
52127;DHT22;38120;53.176;6.614;2023-10-08T08:42:07;14.00;99.90
52127;DHT22;38120;53.176;6.614;2023-10-08T08:44:35;14.00;99.90
52127;DHT22;38120;53.176;6.614;2023-10-08T08:47:05;14.00;99.90
52127;DHT22;38120;53.176;6.614;2023-10-08T08:49:36;14.10;99.90
52127;DHT22;38120;53.176;6.614;2023-10-08T08:52:03;14.10;99.90
52127;DHT22;38120;53.176;6.614;2023-10-08T08:54:29;14.20;99.90
52127;DHT22;38120;53.176;6.614;2023-10-08T08:57:00;14.20;99.90
52127;DHT22;38120;53.176;6.614;2023-10-08T08:59:30;14.30;99.90
52127;DHT22;38120;53.176;6.614;2023-10-08T09:01:59;14.30;99.90
52127;DHT22;38120;53.176;6.614;2023-10-08T09:04:29;14.30;99.90
52127;DHT22;38120;53.176;6.614;2023-10-08T09:06:56;14.30;99.90
52127;DHT22;38120;53.176;6.614;2023-10-08T09:09:28;14.40;99.90
52127;DHT22;38120;53.176;6.614;2023-10-08T09:11:56;14.50;99.90
52127;DHT22;38120;53.176;6.614;2023-10-08T09:14:25;14.40;99.90
52127;DHT22;38120;53.176;6.614;2023-10-08T09:16:53;14.40;99.90
52127;DHT22;38120;53.176;6.614;2023-10-08T09:19:20;14.40;99.90
52127;DHT22;38120;53.176;6.614;2023-10-08T09:22:07;14.40;99.90
52127;DHT22;38120;53.176;6.614;2023-10-08T09:24:38;14.40;99.90
52127;DHT22;38120;53.176;6.614;2023-10-08T09:27:06;14.40;99.90
52127;DHT22;38120;53.176;6.614;2023-10-08T09:29:32;14.40;99.90
52127;DHT22;38120;53.176;6.614;2023-10-08T09:32:04;14.50;99.90
52127;DHT22;38120;53.176;6.614;2023-10-08T09:34:32;14.50;99.90
52127;DHT22;38120;53.176;6.614;2023-10-08T09:36:58;14.60;99.90
52127;DHT22;38120;53.176;6.614;2023-10-08T09:39:30;14.50;99.90
52127;DHT22;38120;53.176;6.614;2023-10-08T09:42:03;14.70;99.90
52127;DHT22;38120;53.176;6.614;2023-10-08T09:44:31;14.60;99.90
52127;DHT22;38120;53.176;6.614;2023-10-08T09:47:05;14.70;99.90
52127;DHT22;38120;53.176;6.614;2023-10-08T09:49:33;14.70;99.90
52127;DHT22;38120;53.176;6.614;2023-10-08T09:52:02;14.70;99.90
52127;DHT22;38120;53.176;6.614;2023-10-08T09:54:30;14.80;99.90
52127;DHT22;38120;53.176;6.614;2023-10-08T09:56:59;14.80;99.90
52127;DHT22;38120;53.176;6.614;2023-10-08T09:59:27;14.90;99.90
52127;DHT22;38120;53.176;6.614;2023-10-08T10:01:55;15.00;99.90
52127;DHT22;38120;53.176;6.614;2023-10-08T10:04:25;15.10;99.90
52127;DHT22;38120;53.176;6.614;2023-10-08T10:06:51;15.10;99.90
52127;DHT22;38120;53.176;6.614;2023-10-08T10:09:20;15.10;99.90
52127;DHT22;38120;53.176;6.614;2023-10-08T10:11:51;15.10;99.90
52127;DHT22;38120;53.176;6.614;2023-10-08T10:14:21;15.10;99.90
52127;DHT22;38120;53.176;6.614;2023-10-08T10:17:27;15.10;99.90
52127;DHT22;38120;53.176;6.614;2023-10-08T10:19:59;15.10;99.90
52127;DHT22;38120;53.176;6.614;2023-10-08T10:22:30;15.20;99.90
52127;DHT22;38120;53.176;6.614;2023-10-08T10:24:57;15.20;99.90
52127;DHT22;38120;53.176;6.614;2023-10-08T10:27:23;15.20;99.90
52127;DHT22;38120;53.176;6.614;2023-10-08T10:29:49;15.40;99.90
52127;DHT22;38120;53.176;6.614;2023-10-08T10:32:15;15.50;99.90
52127;DHT22;38120;53.176;6.614;2023-10-08T10:34:45;15.60;99.90
52127;DHT22;38120;53.176;6.614;2023-10-08T10:37:19;15.60;99.90
52127;DHT22;38120;53.176;6.614;2023-10-08T10:39:55;15.60;99.90
52127;DHT22;38120;53.176;6.614;2023-10-08T10:42:22;15.50;99.90
52127;DHT22;38120;53.176;6.614;2023-10-08T10:44:52;15.50;99.90
52127;DHT22;38120;53.176;6.614;2023-10-08T10:47:22;15.50;99.90
52127;DHT22;38120;53.176;6.614;2023-10-08T10:49:52;15.50;99.90
52127;DHT22;38120;53.176;6.614;2023-10-08T10:52:24;15.40;99.90
52127;DHT22;38120;53.176;6.614;2023-10-08T10:55:09;15.50;99.90
52127;DHT22;38120;53.176;6.614;2023-10-08T10:57:41;15.50;99.90
52127;DHT22;38120;53.176;6.614;2023-10-08T11:00:08;15.50;99.90
52127;DHT22;38120;53.176;6.614;2023-10-08T11:02:53;15.70;99.90
52127;DHT22;38120;53.176;6.614;2023-10-08T11:05:26;16.00;99.90
52127;DHT22;38120;53.176;6.614;2023-10-08T11:07:59;16.10;99.90
52127;DHT22;38120;53.176;6.614;2023-10-08T11:10:33;16.30;99.90
52127;DHT22;38120;53.176;6.614;2023-10-08T11:12:59;16.20;99.90
52127;DHT22;38120;53.176;6.614;2023-10-08T11:15:30;16.20;99.90
52127;DHT22;38120;53.176;6.614;2023-10-08T11:18:13;16.30;1.00
52127;DHT22;38120;53.176;6.614;2023-10-08T11:20:41;16.30;1.00
52127;DHT22;38120;53.176;6.614;2023-10-08T11:26:00;16.20;1.00
52127;DHT22;38120;53.176;6.614;2023-10-08T11:28:29;15.90;99.90
52127;DHT22;38120;53.176;6.614;2023-10-08T11:30:55;15.90;99.90
52127;DHT22;38120;53.176;6.614;2023-10-08T11:33:24;15.80;99.90
52127;DHT22;38120;53.176;6.614;2023-10-08T11:36:01;15.90;99.90
52127;DHT22;38120;53.176;6.614;2023-10-08T11:38:37;15.90;1.00
52127;DHT22;38120;53.176;6.614;2023-10-08T11:41:14;16.00;1.00
52127;DHT22;38120;53.176;6.614;2023-10-08T11:43:50;16.00;99.90
52127;DHT22;38120;53.176;6.614;2023-10-08T11:46:37;16.00;99.90
52127;DHT22;38120;53.176;6.614;2023-10-08T11:49:05;16.00;1.00
52127;DHT22;38120;53.176;6.614;2023-10-08T11:51:32;16.10;99.90
52127;DHT22;38120;53.176;6.614;2023-10-08T11:54:02;16.00;99.90
52127;DHT22;38120;53.176;6.614;2023-10-08T11:56:30;16.00;99.90
52127;DHT22;38120;53.176;6.614;2023-10-08T11:58:57;15.90;19.20
52127;DHT22;38120;53.176;6.614;2023-10-08T12:01:24;16.00;99.90
52127;DHT22;38120;53.176;6.614;2023-10-08T12:03:50;16.10;51.70
52127;DHT22;38120;53.176;6.614;2023-10-08T12:06:16;16.10;99.90
52127;DHT22;38120;53.176;6.614;2023-10-08T12:08:47;16.10;99.90
52127;DHT22;38120;53.176;6.614;2023-10-08T12:11:19;16.10;91.30
52127;DHT22;38120;53.176;6.614;2023-10-08T12:13:48;15.90;1.00
52127;DHT22;38120;53.176;6.614;2023-10-08T12:16:16;16.00;99.90
52127;DHT22;38120;53.176;6.614;2023-10-08T12:18:48;15.90;99.90
52127;DHT22;38120;53.176;6.614;2023-10-08T12:21:17;15.90;1.00
52127;DHT22;38120;53.176;6.614;2023-10-08T12:23:43;16.00;1.00
52127;DHT22;38120;53.176;6.614;2023-10-08T12:26:11;15.90;42.50
52127;DHT22;38120;53.176;6.614;2023-10-08T12:28:42;15.90;99.90
52127;DHT22;38120;53.176;6.614;2023-10-08T12:31:13;16.00;59.60
52127;DHT22;38120;53.176;6.614;2023-10-08T12:33:41;16.20;99.90
52127;DHT22;38120;53.176;6.614;2023-10-08T12:36:10;16.20;94.00
52127;DHT22;38120;53.176;6.614;2023-10-08T12:38:43;16.20;1.00
52127;DHT22;38120;53.176;6.614;2023-10-08T12:41:10;16.30;99.90
52127;DHT22;38120;53.176;6.614;2023-10-08T12:43:44;16.40;99.90
52127;DHT22;38120;53.176;6.614;2023-10-08T12:46:18;16.50;1.00
52127;DHT22;38120;53.176;6.614;2023-10-08T12:48:47;16.50;99.90
52127;DHT22;38120;53.176;6.614;2023-10-08T12:51:18;16.60;99.90
52127;DHT22;38120;53.176;6.614;2023-10-08T12:53:44;16.60;1.00
52127;DHT22;38120;53.176;6.614;2023-10-08T12:56:29;16.70;1.70
52127;DHT22;38120;53.176;6.614;2023-10-08T12:59:02;16.70;99.90
52127;DHT22;38120;53.176;6.614;2023-10-08T13:01:37;16.80;99.90
52127;DHT22;38120;53.176;6.614;2023-10-08T13:04:06;16.90;1.00
52127;DHT22;38120;53.176;6.614;2023-10-08T13:06:34;16.90;1.00
52127;DHT22;38120;53.176;6.614;2023-10-08T13:09:03;17.00;64.80
52127;DHT22;38120;53.176;6.614;2023-10-08T13:11:38;16.80;99.90
52127;DHT22;38120;53.176;6.614;2023-10-08T13:14:05;16.70;99.90
52127;DHT22;38120;53.176;6.614;2023-10-08T13:16:31;16.60;99.90
52127;DHT22;38120;53.176;6.614;2023-10-08T13:18:58;16.60;99.90
52127;DHT22;38120;53.176;6.614;2023-10-08T13:21:27;16.50;1.00
52127;DHT22;38120;53.176;6.614;2023-10-08T13:23:57;16.80;26.70
52127;DHT22;38120;53.176;6.614;2023-10-08T13:26:25;16.90;99.90
52127;DHT22;38120;53.176;6.614;2023-10-08T13:28:57;17.10;99.90
52127;DHT22;38120;53.176;6.614;2023-10-08T13:31:24;17.30;1.00
52127;DHT22;38120;53.176;6.614;2023-10-08T13:33:50;17.20;99.90
52127;DHT22;38120;53.176;6.614;2023-10-08T13:36:18;17.20;99.90
52127;DHT22;38120;53.176;6.614;2023-10-08T13:38:44;17.10;99.90
52127;DHT22;38120;53.176;6.614;2023-10-08T13:41:12;17.00;1.00
52127;DHT22;38120;53.176;6.614;2023-10-08T13:43:42;17.00;99.90
52127;DHT22;38120;53.176;6.614;2023-10-08T13:46:12;17.00;1.00
52127;DHT22;38120;53.176;6.614;2023-10-08T13:48:39;17.00;33.00
52127;DHT22;38120;53.176;6.614;2023-10-08T13:51:06;17.00;99.90
52127;DHT22;38120;53.176;6.614;2023-10-08T13:53:42;16.90;1.00
52127;DHT22;38120;53.176;6.614;2023-10-08T13:56:12;16.90;99.90
52127;DHT22;38120;53.176;6.614;2023-10-08T13:58:39;16.90;1.00
52127;DHT22;38120;53.176;6.614;2023-10-08T14:01:14;16.70;99.90
52127;DHT22;38120;53.176;6.614;2023-10-08T14:03:51;16.60;99.90
52127;DHT22;38120;53.176;6.614;2023-10-08T14:06:19;16.40;99.90
52127;DHT22;38120;53.176;6.614;2023-10-08T14:08:46;16.40;99.90
52127;DHT22;38120;53.176;6.614;2023-10-08T14:11:21;16.40;1.00
52127;DHT22;38120;53.176;6.614;2023-10-08T14:13:52;16.30;99.90
52127;DHT22;38120;53.176;6.614;2023-10-08T14:16:21;16.10;99.90
52127;DHT22;38120;53.176;6.614;2023-10-08T14:18:50;16.10;1.00
52127;DHT22;38120;53.176;6.614;2023-10-08T14:21:20;16.10;65.20
52127;DHT22;38120;53.176;6.614;2023-10-08T14:23:52;16.00;99.90
52127;DHT22;38120;53.176;6.614;2023-10-08T14:26:18;16.00;99.90
52127;DHT22;38120;53.176;6.614;2023-10-08T14:28:48;16.00;99.90
52127;DHT22;38120;53.176;6.614;2023-10-08T14:31:20;15.90;99.90
52127;DHT22;38120;53.176;6.614;2023-10-08T14:33:50;15.90;99.90
52127;DHT22;38120;53.176;6.614;2023-10-08T14:36:31;15.90;99.90
52127;DHT22;38120;53.176;6.614;2023-10-08T14:39:15;15.90;99.90
52127;DHT22;38120;53.176;6.614;2023-10-08T14:41:59;15.90;99.90
52127;DHT22;38120;53.176;6.614;2023-10-08T14:44:43;15.80;99.90
52127;DHT22;38120;53.176;6.614;2023-10-08T14:47:09;15.90;99.90
52127;DHT22;38120;53.176;6.614;2023-10-08T14:49:35;16.00;99.90
52127;DHT22;38120;53.176;6.614;2023-10-08T14:52:01;16.00;99.90
52127;DHT22;38120;53.176;6.614;2023-10-08T14:54:30;16.00;99.90
52127;DHT22;38120;53.176;6.614;2023-10-08T14:56:56;16.00;99.90
52127;DHT22;38120;53.176;6.614;2023-10-08T14:59:23;16.00;99.90
52127;DHT22;38120;53.176;6.614;2023-10-08T15:01:49;15.90;99.90
52127;DHT22;38120;53.176;6.614;2023-10-08T15:04:15;15.90;99.90
52127;DHT22;38120;53.176;6.614;2023-10-08T15:06:42;15.80;99.90
52127;DHT22;38120;53.176;6.614;2023-10-08T15:09:09;15.80;99.90
52127;DHT22;38120;53.176;6.614;2023-10-08T15:11:35;15.80;99.90
52127;DHT22;38120;53.176;6.614;2023-10-08T15:14:04;15.80;99.90
52127;DHT22;38120;53.176;6.614;2023-10-08T15:16:38;15.80;99.90
52127;DHT22;38120;53.176;6.614;2023-10-08T15:19:05;15.80;99.90
52127;DHT22;38120;53.176;6.614;2023-10-08T15:21:31;15.70;99.90
52127;DHT22;38120;53.176;6.614;2023-10-08T15:24:00;15.70;99.90
52127;DHT22;38120;53.176;6.614;2023-10-08T15:26:36;15.70;99.90
52127;DHT22;38120;53.176;6.614;2023-10-08T15:29:02;15.70;99.90
52127;DHT22;38120;53.176;6.614;2023-10-08T15:31:28;15.60;99.90
52127;DHT22;38120;53.176;6.614;2023-10-08T15:33:54;15.60;99.90
52127;DHT22;38120;53.176;6.614;2023-10-08T15:36:20;15.60;99.90
52127;DHT22;38120;53.176;6.614;2023-10-08T15:38:46;15.60;99.90
52127;DHT22;38120;53.176;6.614;2023-10-08T15:41:12;15.60;99.90
52127;DHT22;38120;53.176;6.614;2023-10-08T15:43:42;15.60;99.90
52127;DHT22;38120;53.176;6.614;2023-10-08T15:46:10;15.50;99.90
52127;DHT22;38120;53.176;6.614;2023-10-08T15:48:36;15.50;99.90
52127;DHT22;38120;53.176;6.614;2023-10-08T15:51:03;15.50;99.90
52127;DHT22;38120;53.176;6.614;2023-10-08T15:53:28;15.40;99.90
52127;DHT22;38120;53.176;6.614;2023-10-08T15:55:56;15.50;99.90
52127;DHT22;38120;53.176;6.614;2023-10-08T15:58:22;15.40;99.90
52127;DHT22;38120;53.176;6.614;2023-10-08T16:00:48;15.40;99.90
52127;DHT22;38120;53.176;6.614;2023-10-08T16:03:14;15.40;99.90
52127;DHT22;38120;53.176;6.614;2023-10-08T16:05:43;15.40;99.90